Friant, California
Current Conditions -  °F | °C
As of 11:53 PM on Thursday 18 Dec 2014 (Local Time) from KFAT Reporting Station
Broken Clouds Broken Clouds  
Wind Chill: 47°   Ceiling: 15000
Heat Index: 47°   Visibility: 10mi
Dew Point: 43°   Wind: 3mph
Humidity: 86%   Direction: 80°E
Pressure: 30.23"   Gusts: NA
Location:  36.99°N, 119.71°W
Report Text: KFAT 190753Z 08003KT 10SM BKN150 08/06 A3023 RMK AO2 SLP236 T00830061 401670067
Loading
Personal Weather Stations






























Interactive Weather Map New forecast layout! Learn more

10-Day Weather Forecast

Advertisements
Track Severe Weather on mobile